createdAt,value
2023-03-15T12:39:46.408Z,7.65
2023-03-15T12:43:15.863Z,7.89
2023-03-15T12:47:01.271Z,8.07
2023-03-15T12:50:54.188Z,8.11
2023-03-15T12:54:22.743Z,7.91
2023-03-15T12:57:55.430Z,7.71
2023-03-15T13:01:26.027Z,7.55
2023-03-15T13:04:58.855Z,7.50
2023-03-15T13:08:24.824Z,7.75
2023-03-15T13:11:58.753Z,8.04
2023-03-15T13:15:34.059Z,8.32
2023-03-15T13:19:10.664Z,8.50
2023-03-15T13:22:54.911Z,8.66
2023-03-15T13:26:35.858Z,8.71
2023-03-15T13:30:03.477Z,8.90
2023-03-15T13:33:31.691Z,9.18
2023-03-15T13:37:02.452Z,9.37
2023-03-15T13:40:28.927Z,9.28
2023-03-15T13:43:57.815Z,9.11
2023-03-15T13:47:24.630Z,8.85
2023-03-15T13:50:54.734Z,8.62
2023-03-15T13:54:26.071Z,8.43
2023-03-15T13:57:59.518Z,8.25
2023-03-15T14:01:28.523Z,8.11
2023-03-15T14:05:01.148Z,8.02
2023-03-15T14:08:32.156Z,8.06
2023-03-15T14:12:19.075Z,7.94
2023-03-15T14:15:48.142Z,7.79
2023-03-15T14:19:22.801Z,7.68
2023-03-15T14:22:52.172Z,7.57
2023-03-15T14:26:22.614Z,7.75
2023-03-15T14:29:54.586Z,8.04
2023-03-15T14:33:31.682Z,8.36
2023-03-15T14:37:00.053Z,8.68
2023-03-15T14:40:35.054Z,8.91
2023-03-15T14:44:03.254Z,9.12
2023-03-15T14:47:30.290Z,9.20
2023-03-15T14:50:57.958Z,9.29
2023-03-15T14:54:24.311Z,9.38
2023-03-15T14:57:50.514Z,9.50
2023-03-15T15:01:19.465Z,9.54
2023-03-15T15:04:48.593Z,9.52
2023-03-15T15:08:18.068Z,9.44
2023-03-15T15:11:44.390Z,9.39
2023-03-15T15:15:18.711Z,9.35
2023-03-15T15:18:45.211Z,9.22
2023-03-15T15:22:12.961Z,9.04
2023-03-15T15:25:39.355Z,8.89
2023-03-15T15:29:06.040Z,8.71
2023-03-15T15:32:34.181Z,8.52
2023-03-15T15:36:01.576Z,8.28
2023-03-15T15:39:29.898Z,8.11
2023-03-15T15:42:56.534Z,7.94
2023-03-15T15:46:24.203Z,7.75
2023-03-15T15:49:51.215Z,7.62
2023-03-15T15:53:19.946Z,7.51
2023-03-15T15:56:50.509Z,7.39
2023-03-15T16:00:19.785Z,7.29
2023-03-15T16:03:47.607Z,7.17
2023-03-15T16:07:15.462Z,7.06
2023-03-15T16:10:41.707Z,6.98
2023-03-15T16:14:08.122Z,6.88
2023-03-15T16:17:35.992Z,6.76
2023-03-15T16:21:03.553Z,6.64
2023-03-15T16:24:34.215Z,6.53
2023-03-15T16:28:03.966Z,6.41
2023-03-15T16:31:33.974Z,6.30
2023-03-15T16:35:02.238Z,6.20
2023-03-15T16:38:32.613Z,6.08
2023-03-15T16:41:59.407Z,5.94
2023-03-15T16:45:26.252Z,5.79
2023-03-15T16:48:52.935Z,5.64
2023-03-15T16:52:20.270Z,5.50
2023-03-15T16:55:46.553Z,5.38
2023-03-15T16:59:16.776Z,5.25
2023-03-15T17:02:43.260Z,5.11
2023-03-15T17:06:17.690Z,5.01
2023-03-15T17:09:46.813Z,4.94
2023-03-15T17:13:21.490Z,4.84
2023-03-15T17:16:48.240Z,4.75
2023-03-15T17:20:21.873Z,4.66
2023-03-15T17:23:46.953Z,4.54
2023-03-15T17:27:22.569Z,4.42
2023-03-15T17:30:59.607Z,4.31
2023-03-15T17:34:35.457Z,4.20
2023-03-15T17:38:03.484Z,4.10
2023-03-15T17:41:33.404Z,3.99
2023-03-15T17:45:07.115Z,3.85
2023-03-15T17:48:33.399Z,3.74
2023-03-15T17:52:00.720Z,3.64
2023-03-15T17:55:35.236Z,3.54
2023-03-15T17:59:05.058Z,3.42
2023-03-15T18:02:33.700Z,3.33
2023-03-15T18:06:05.681Z,3.22
2023-03-15T18:09:38.768Z,3.13
2023-03-15T18:13:15.120Z,3.03
2023-03-15T18:16:50.257Z,2.93
2023-03-15T18:20:22.490Z,2.81
2023-03-15T18:23:51.548Z,2.72
2023-03-15T18:27:24.438Z,2.63
2023-03-15T18:30:55.784Z,2.55
2023-03-15T18:34:26.654Z,2.47
2023-03-15T18:37:59.011Z,2.38
2023-03-15T18:41:34.472Z,2.28
2023-03-15T18:45:02.668Z,2.19
2023-03-15T18:48:39.968Z,2.11
2023-03-15T18:52:09.626Z,2.03
2023-03-15T18:55:36.753Z,1.96
2023-03-15T18:59:06.718Z,1.93
2023-03-15T19:02:36.605Z,1.90
2023-03-15T19:06:09.004Z,1.87
2023-03-15T19:09:35.617Z,1.87
2023-03-15T19:13:04.556Z,1.89
2023-03-15T19:16:32.471Z,1.91
2023-03-15T19:19:59.893Z,1.90
2023-03-15T19:23:28.988Z,1.89
2023-03-15T19:26:57.358Z,1.88
2023-03-15T19:30:27.928Z,1.85
2023-03-15T19:33:57.015Z,1.80
2023-03-15T19:37:27.311Z,1.76
2023-03-15T19:40:59.001Z,1.71
2023-03-15T19:44:34.747Z,1.65
2023-03-15T19:48:01.959Z,1.59
2023-03-15T19:51:29.565Z,1.57
2023-03-15T19:54:57.366Z,1.55
2023-03-15T19:58:24.450Z,1.54
2023-03-15T20:01:51.045Z,1.54
2023-03-15T20:05:20.780Z,1.54
2023-03-15T20:08:47.457Z,1.53
2023-03-15T20:12:15.582Z,1.52
2023-03-15T20:15:43.213Z,1.50
2023-03-15T20:19:10.098Z,1.49
2023-03-15T20:22:40.632Z,1.49
2023-03-15T20:26:11.024Z,1.47
2023-03-15T20:29:37.844Z,1.45
2023-03-15T20:33:04.738Z,1.47
2023-03-15T20:36:33.561Z,1.49
2023-03-15T20:40:00.859Z,1.53
2023-03-15T20:43:28.114Z,1.60
2023-03-15T20:46:57.040Z,1.66
2023-03-15T20:50:24.242Z,1.75
2023-03-15T20:53:51.230Z,1.82
2023-03-15T20:57:18.858Z,1.90
2023-03-15T21:00:46.168Z,1.94
2023-03-15T21:04:13.903Z,1.95
2023-03-15T21:07:41.660Z,1.93
2023-03-15T21:11:09.346Z,1.90
2023-03-15T21:14:37.031Z,1.87
2023-03-15T21:18:03.795Z,1.83
2023-03-15T21:21:31.290Z,1.78
2023-03-15T21:24:58.489Z,1.69
2023-03-15T21:28:26.665Z,1.61
2023-03-15T21:31:55.361Z,1.55
2023-03-15T21:35:23.574Z,1.48
2023-03-15T21:38:49.862Z,1.42
2023-03-15T21:42:16.735Z,1.37
2023-03-15T21:45:44.487Z,1.32
2023-03-15T21:49:19.633Z,1.26
2023-03-15T21:52:46.368Z,1.22
2023-03-15T21:56:14.215Z,1.19
2023-03-15T21:59:41.283Z,1.14
2023-03-15T22:03:08.256Z,1.10
2023-03-15T22:06:34.918Z,1.09
2023-03-15T22:10:02.374Z,1.07
2023-03-15T22:13:30.281Z,1.06
2023-03-15T22:16:57.150Z,1.06
2023-03-15T22:20:29.297Z,1.09
2023-03-15T22:23:57.071Z,1.11
2023-03-15T22:27:24.101Z,1.16
2023-03-15T22:30:52.404Z,1.21
2023-03-15T22:34:19.303Z,1.24
2023-03-15T22:37:46.923Z,1.27
2023-03-15T22:41:14.304Z,1.27
2023-03-15T22:44:40.829Z,1.26
2023-03-15T22:48:08.294Z,1.24
2023-03-15T22:51:35.173Z,1.20
2023-03-15T22:55:01.789Z,1.14
2023-03-15T22:58:29.078Z,1.08
2023-03-15T23:01:55.535Z,1.03
2023-03-15T23:05:22.764Z,0.98
2023-03-15T23:08:51.318Z,0.94
2023-03-15T23:12:21.906Z,0.88
2023-03-15T23:15:52.194Z,0.79
2023-03-15T23:19:19.967Z,0.72
2023-03-15T23:22:46.719Z,0.68
2023-03-15T23:26:16.545Z,0.63
2023-03-15T23:29:53.726Z,0.58
2023-03-15T23:33:21.372Z,0.53
2023-03-15T23:36:47.758Z,0.51
2023-03-15T23:40:15.867Z,0.50
2023-03-15T23:43:45.444Z,0.50
2023-03-15T23:47:12.705Z,0.50
2023-03-15T23:50:44.512Z,0.53
2023-03-15T23:54:11.687Z,0.59
2023-03-15T23:57:38.981Z,0.66
